Terminal Aerodrome Forecast
Issued by NWS

Home | Current Version | Previous Version | Text Only | Print | Product List | Glossary On
Versions: 1 2 3 4 5 6 7 8 9 10 11 12
000
FTUS43 KGRB 251128
TAFAUW
TAF
KAUW 251128Z 2512/2612 VRB03KT P6SM SCT100
      TEMPO 2512/2516 BKN100
     FM251600 20004KT P6SM VCSH SCT050 BKN070
     FM252000 VRB03KT P6SM VCTS BKN040CB
      TEMPO 2521/2601 5SM -SHRA BKN015
     FM260100 VRB03KT P6SM VCSH BKN030
     FM260700 00000KT 4SM BR VCSH BKN012=

USA.gov is the U.S. government's official web portal to all federal, state and local government web resources and services.